Burlington, Oregon
Current Conditions -  °F | °C
As of 2:53 PM on Friday 28 Nov 2014 (Local Time) from KHIO Reporting Station
Overcast Overcast  
Wind Chill: 55°   Ceiling: 1900
Heat Index: 55°   Visibility: 10mi
Dew Point: 53°   Wind: 12mph
Humidity: 93%   Direction: 170°S
Pressure: 29.45"   Gusts: NA
Location:  45.6308°N, 122.858°W
Report Text: KHIO 282253Z AUTO 17010KT 10SM FEW013 BKN019 OVC070 13/12 A2945 RMK AO2 RAE22 SLP973 P0003 T01280117
Loading
Personal Weather Stations






























Interactive Weather Map New forecast layout! Learn more

10-Day Weather Forecast

Advertisements
Track Severe Weather on mobile